createdAt,value
2022-10-18T00:00:58.082Z,7.45
2022-10-18T00:03:00.605Z,7.35
2022-10-18T00:05:03.661Z,7.60
2022-10-18T00:07:06.387Z,5.83
2022-10-18T00:09:18.841Z,6.70
2022-10-18T00:11:21.366Z,5.93
2022-10-18T00:13:24.613Z,6.50
2022-10-18T00:15:27.378Z,6.30
2022-10-18T00:17:30.258Z,6.30
2022-10-18T00:19:33.020Z,6.20
2022-10-18T00:21:35.704Z,7.07
2022-10-18T00:23:38.729Z,6.93
2022-10-18T00:25:41.251Z,6.43
2022-10-18T00:27:43.886Z,7.40
2022-10-18T00:29:46.585Z,7.07
2022-10-18T00:31:49.153Z,6.20
2022-10-18T00:33:55.298Z,7.27
2022-10-18T00:36:00.980Z,7.83
2022-10-18T00:38:03.518Z,9.37
2022-10-18T00:40:06.779Z,10.03
2022-10-18T00:42:17.479Z,9.40
2022-10-18T00:44:25.764Z,10.03
2022-10-18T00:46:35.046Z,9.90
2022-10-18T00:48:37.615Z,9.97
2022-10-18T00:50:40.860Z,10.67
2022-10-18T00:52:53.653Z,10.63
2022-10-18T00:54:59.668Z,9.30
2022-10-18T00:57:03.269Z,10.90
2022-10-18T00:59:06.077Z,9.30
2022-10-18T01:01:08.835Z,10.23
2022-10-18T01:03:11.447Z,10.93
2022-10-18T01:05:17.228Z,10.37
2022-10-18T01:07:35.604Z,11.67
2022-10-18T01:09:52.154Z,9.60
2022-10-18T01:12:24.754Z,10.43
2022-10-18T01:14:45.454Z,9.40
2022-10-18T01:16:59.151Z,10.95
2022-10-18T01:19:06.825Z,11.83
2022-10-18T01:21:20.493Z,12.80
2022-10-18T01:24:09.983Z,10.97
2022-10-18T01:26:39.730Z,9.50
2022-10-18T01:29:22.706Z,10.07
2022-10-18T01:31:45.641Z,9.33
2022-10-18T01:33:54.127Z,8.43
2022-10-18T01:36:10.099Z,9.13
2022-10-18T01:38:17.985Z,9.43
2022-10-18T01:40:23.844Z,8.63
2022-10-18T01:42:27.071Z,9.40
2022-10-18T01:44:33.306Z,7.63
2022-10-18T01:46:37.461Z,9.40
2022-10-18T01:48:40.131Z,9.03
2022-10-18T01:50:42.841Z,8.83
2022-10-18T01:52:51.987Z,9.23
2022-10-18T01:54:56.085Z,9.03
2022-10-18T01:57:22.755Z,8.83
2022-10-18T01:59:56.576Z,7.50
2022-10-18T02:02:20.965Z,7.20
2022-10-18T02:04:49.984Z,7.60
2022-10-18T02:07:02.004Z,7.07
2022-10-18T02:09:18.359Z,7.33
2022-10-18T02:11:21.302Z,6.20
2022-10-18T02:13:29.242Z,6.73
2022-10-18T02:15:36.318Z,5.50
2022-10-18T02:17:40.341Z,5.73
2022-10-18T02:19:48.430Z,5.80
2022-10-18T02:21:54.153Z,4.90
2022-10-18T02:23:59.102Z,4.90
2022-10-18T02:26:02.198Z,4.83
2022-10-18T02:28:05.909Z,5.13
2022-10-18T02:30:09.946Z,4.13
2022-10-18T02:32:31.078Z,3.83
2022-10-18T02:34:46.931Z,4.60
2022-10-18T02:36:56.766Z,4.40
2022-10-18T02:39:07.338Z,3.37
2022-10-18T02:41:09.867Z,5.20
2022-10-18T02:43:14.515Z,3.90
2022-10-18T02:45:17.662Z,4.20
2022-10-18T02:47:20.165Z,4.40
2022-10-18T02:49:23.478Z,4.20
2022-10-18T02:51:26.256Z,4.30
2022-10-18T02:53:29.543Z,4.30
2022-10-18T02:55:32.193Z,4.17
2022-10-18T02:57:38.482Z,3.23
2022-10-18T02:59:41.054Z,3.23
2022-10-18T03:01:43.666Z,4.20
2022-10-18T03:03:46.265Z,3.70
2022-10-18T03:05:53.021Z,4.30
2022-10-18T03:07:57.903Z,4.30
2022-10-18T03:10:00.446Z,4.10
2022-10-18T03:12:03.077Z,3.53
2022-10-18T03:14:05.589Z,4.03
2022-10-18T03:16:08.102Z,4.60
2022-10-18T03:18:11.117Z,9.23
2022-10-18T03:20:13.967Z,13.90
2022-10-18T03:22:16.533Z,12.70
2022-10-18T03:24:19.111Z,13.20
2022-10-18T03:26:22.644Z,13.80
2022-10-18T03:28:25.279Z,12.10
2022-10-18T03:30:27.917Z,12.93
2022-10-18T03:32:31.977Z,12.70
2022-10-18T03:34:34.860Z,13.23
2022-10-18T03:36:38.783Z,12.50
2022-10-18T03:38:41.565Z,13.70
2022-10-18T03:40:44.086Z,11.77
2022-10-18T03:42:46.838Z,12.70
2022-10-18T03:44:49.404Z,10.70
2022-10-18T03:46:52.014Z,9.67
2022-10-18T03:48:54.565Z,9.07
2022-10-18T03:50:57.126Z,9.00
2022-10-18T03:52:59.684Z,9.77
2022-10-18T03:55:09.305Z,8.07
2022-10-18T03:57:11.883Z,7.63
2022-10-18T03:59:14.466Z,8.27
2022-10-18T04:01:17.278Z,7.80
2022-10-18T04:03:22.246Z,7.40
2022-10-18T04:05:26.857Z,7.07
2022-10-18T04:07:30.748Z,6.17
2022-10-18T04:09:33.337Z,6.80
2022-10-18T04:11:36.909Z,6.68
2022-10-18T04:13:40.229Z,6.00
2022-10-18T04:15:43.628Z,6.80
2022-10-18T04:17:46.723Z,7.37
2022-10-18T04:19:49.556Z,9.50
2022-10-18T04:21:52.066Z,7.53
2022-10-18T04:23:54.654Z,7.97
2022-10-18T04:25:57.198Z,6.80
2022-10-18T04:27:59.712Z,6.60
2022-10-18T04:30:03.233Z,6.93
2022-10-18T04:32:05.947Z,7.83
2022-10-18T04:34:09.641Z,9.17
2022-10-18T04:36:12.591Z,7.80
2022-10-18T04:38:15.182Z,6.20
2022-10-18T04:40:18.002Z,7.70
2022-10-18T04:42:21.819Z,6.47
2022-10-18T04:44:24.380Z,6.60
2022-10-18T04:46:26.973Z,6.90
2022-10-18T04:48:29.521Z,6.40
2022-10-18T04:50:32.097Z,7.70
2022-10-18T04:52:34.780Z,7.13
2022-10-18T04:54:37.638Z,6.90
2022-10-18T04:56:40.204Z,8.10
2022-10-18T04:58:42.889Z,7.60
2022-10-18T05:00:45.974Z,8.25
2022-10-18T05:02:48.604Z,6.93
2022-10-18T05:04:51.772Z,9.03
2022-10-18T05:06:54.362Z,9.47
2022-10-18T05:08:57.033Z,11.50
2022-10-18T05:10:59.763Z,10.80
2022-10-18T05:13:02.317Z,11.13
2022-10-18T05:15:05.578Z,10.77
2022-10-18T05:17:08.109Z,11.67
2022-10-18T05:19:11.071Z,11.07
2022-10-18T05:21:13.682Z,10.33
2022-10-18T05:23:16.248Z,9.90
2022-10-18T05:25:18.760Z,10.50
2022-10-18T05:27:35.944Z,9.90
2022-10-18T05:29:38.474Z,8.33
2022-10-18T05:32:31.349Z,7.80
2022-10-18T05:34:34.594Z,10.20
2022-10-18T05:36:37.137Z,10.77
2022-10-18T05:38:45.394Z,11.75
2022-10-18T05:40:48.040Z,9.60
2022-10-18T05:42:53.701Z,9.25
2022-10-18T05:44:56.252Z,8.20
2022-10-18T05:46:58.824Z,8.10
2022-10-18T05:49:01.468Z,8.00
2022-10-18T05:51:04.264Z,6.60
2022-10-18T05:53:36.842Z,6.00
2022-10-18T05:55:41.643Z,7.73
2022-10-18T05:57:44.144Z,13.33
2022-10-18T05:59:46.754Z,14.52
2022-10-18T06:01:57.369Z,12.80
2022-10-18T06:03:59.967Z,13.05
2022-10-18T06:06:13.294Z,10.47
2022-10-18T06:08:15.852Z,10.10
2022-10-18T06:10:18.522Z,9.32
2022-10-18T06:12:21.072Z,10.63
2022-10-18T06:14:23.721Z,8.20
2022-10-18T06:16:31.958Z,8.87
2022-10-18T06:19:00.517Z,7.93
2022-10-18T06:21:03.937Z,6.70
2022-10-18T06:23:06.940Z,6.83
2022-10-18T06:25:09.925Z,8.40
2022-10-18T06:27:12.506Z,7.30
2022-10-18T06:29:15.175Z,7.70
2022-10-18T06:31:35.056Z,10.13
2022-10-18T06:33:37.686Z,9.93
2022-10-18T06:35:40.329Z,10.00
2022-10-18T06:39:50.327Z,9.37
2022-10-18T06:41:54.002Z,9.25
2022-10-18T06:43:58.488Z,9.37
2022-10-18T06:46:04.830Z,9.70
2022-10-18T06:48:07.607Z,9.40
2022-10-18T06:50:11.721Z,9.40
2022-10-18T06:52:15.334Z,8.40
2022-10-18T06:54:19.004Z,8.10
2022-10-18T06:56:23.121Z,7.93
2022-10-18T06:58:25.653Z,9.00
2022-10-18T07:00:31.708Z,9.43
2022-10-18T07:02:44.450Z,8.80
2022-10-18T07:04:47.448Z,8.20
2022-10-18T07:09:27.467Z,8.57
2022-10-18T07:11:30.088Z,10.57
2022-10-18T07:13:33.959Z,8.33
2022-10-18T07:15:38.682Z,7.83
2022-10-18T07:18:06.365Z,7.07
2022-10-18T07:20:09.400Z,7.50
2022-10-18T07:22:12.636Z,9.00
2022-10-18T07:24:21.888Z,8.60
2022-10-18T07:26:33.572Z,7.47
2022-10-18T07:28:39.259Z,8.30
2022-10-18T07:31:06.388Z,8.40
2022-10-18T07:33:35.219Z,7.60
2022-10-18T07:36:10.122Z,7.97
2022-10-18T07:38:15.138Z,8.03
2022-10-18T07:40:17.764Z,8.33
2022-10-18T07:42:20.653Z,7.60
2022-10-18T07:44:23.293Z,6.70
2022-10-18T07:46:27.762Z,7.07
2022-10-18T07:48:35.594Z,6.90
2022-10-18T07:50:38.205Z,7.77
2022-10-18T07:52:40.802Z,10.93
2022-10-18T07:54:43.398Z,11.50
2022-10-18T07:56:47.200Z,9.10
2022-10-18T07:58:53.088Z,8.47
2022-10-18T08:00:55.710Z,9.90
2022-10-18T08:03:01.746Z,8.90
2022-10-18T08:05:35.718Z,7.80
2022-10-18T08:07:38.404Z,6.70
2022-10-18T08:09:40.976Z,8.00
2022-10-18T08:11:43.546Z,7.20
2022-10-18T08:13:46.711Z,6.43
2022-10-18T08:15:49.248Z,6.30
2022-10-18T08:17:52.594Z,5.60
2022-10-18T08:20:11.715Z,9.70
2022-10-18T08:22:16.737Z,5.80
2022-10-18T08:24:19.786Z,5.50
2022-10-18T08:26:24.421Z,6.60
2022-10-18T08:28:28.775Z,5.70
2022-10-18T08:30:31.447Z,5.63
2022-10-18T08:33:27.583Z,6.17
2022-10-18T08:35:31.747Z,5.40
2022-10-18T08:37:40.308Z,5.73
2022-10-18T08:39:43.036Z,5.10
2022-10-18T08:42:13.436Z,5.90
2022-10-18T08:44:30.709Z,5.70
2022-10-18T08:46:35.461Z,5.40
2022-10-18T08:48:47.362Z,5.40
2022-10-18T08:50:55.475Z,5.20
2022-10-18T08:53:17.741Z,6.23
2022-10-18T08:55:36.391Z,4.60
2022-10-18T08:57:40.489Z,5.03
2022-10-18T08:59:44.409Z,5.00
2022-10-18T09:02:17.542Z,4.17
2022-10-18T09:04:46.661Z,4.67
2022-10-18T09:07:36.804Z,4.20
2022-10-18T09:09:51.896Z,3.47
2022-10-18T09:12:27.089Z,4.00
2022-10-18T09:15:19.716Z,4.30
2022-10-18T09:17:42.829Z,3.90
2022-10-18T09:20:09.844Z,4.47
2022-10-18T09:22:18.771Z,4.73
2022-10-18T09:24:38.837Z,5.53
2022-10-18T09:26:47.045Z,4.40
2022-10-18T09:29:34.074Z,4.57
2022-10-18T09:32:12.805Z,5.90
2022-10-18T09:34:40.263Z,5.53
2022-10-18T09:36:46.502Z,4.27
2022-10-18T09:38:56.118Z,4.90
2022-10-18T09:41:09.033Z,3.30
2022-10-18T09:43:21.518Z,3.90
2022-10-18T09:45:28.154Z,3.70
2022-10-18T09:47:41.657Z,3.20
2022-10-18T09:49:52.871Z,3.10
2022-10-18T09:51:56.577Z,2.90
2022-10-18T09:54:22.230Z,4.60
2022-10-18T09:56:40.932Z,4.60
2022-10-18T09:58:51.545Z,4.53
2022-10-18T10:00:55.328Z,5.10
2022-10-18T10:03:00.933Z,4.30
2022-10-18T10:05:03.858Z,4.10
2022-10-18T10:07:12.944Z,4.63
2022-10-18T10:09:18.493Z,3.93
2022-10-18T10:11:34.361Z,4.73
2022-10-18T10:13:38.894Z,3.90
2022-10-18T10:15:57.545Z,5.40
2022-10-18T10:18:09.185Z,2.80
2022-10-18T10:20:24.195Z,3.53
2022-10-18T10:22:40.741Z,2.87
2022-10-18T10:24:47.875Z,2.57
2022-10-18T10:26:51.542Z,3.00
2022-10-18T10:28:54.335Z,2.73
2022-10-18T10:31:34.561Z,2.50
2022-10-18T10:33:38.984Z,2.60
2022-10-18T10:35:52.969Z,2.40
2022-10-18T10:37:57.043Z,3.17
2022-10-18T10:40:25.151Z,2.60
2022-10-18T10:42:32.974Z,2.73
2022-10-18T10:44:37.153Z,2.80
2022-10-18T10:47:06.024Z,2.43
2022-10-18T10:49:41.572Z,2.43
2022-10-18T10:51:45.205Z,2.60
2022-10-18T10:54:16.130Z,2.40
2022-10-18T10:57:00.920Z,2.47
2022-10-18T10:59:17.282Z,2.43
2022-10-18T11:01:23.966Z,2.47
2022-10-18T11:03:29.407Z,2.43
2022-10-18T11:05:45.578Z,2.20
2022-10-18T11:09:06.299Z,2.20
2022-10-18T11:11:30.650Z,3.33
2022-10-18T11:13:53.370Z,2.57
2022-10-18T11:16:20.596Z,3.30
2022-10-18T11:18:32.901Z,3.30
2022-10-18T11:20:49.519Z,2.47
2022-10-18T11:23:06.714Z,3.00
2022-10-18T11:25:15.374Z,2.43
2022-10-18T11:27:31.469Z,2.40
2022-10-18T11:30:02.939Z,3.67
2022-10-18T11:33:05.839Z,4.50
2022-10-18T11:35:27.960Z,4.00
2022-10-18T11:38:36.489Z,9.73
2022-10-18T11:41:23.250Z,10.03
2022-10-18T11:44:28.893Z,18.37
2022-10-18T11:46:55.992Z,14.93
2022-10-18T11:49:19.756Z,12.80
2022-10-18T11:52:07.733Z,14.90
2022-10-18T11:54:56.991Z,20.90
2022-10-18T11:57:43.983Z,19.27
2022-10-18T12:00:14.946Z,24.17
2022-10-18T12:02:48.096Z,45.10
2022-10-18T12:05:23.152Z,55.97
2022-10-18T12:07:27.818Z,40.70
2022-10-18T12:09:44.324Z,35.60
2022-10-18T12:12:02.027Z,35.78
2022-10-18T12:14:29.669Z,34.60
2022-10-18T12:16:50.887Z,39.10
2022-10-18T12:19:42.861Z,31.87
2022-10-18T12:21:45.867Z,41.93
2022-10-18T12:24:01.446Z,33.25
2022-10-18T12:26:11.198Z,27.40
2022-10-18T12:28:16.631Z,23.55
2022-10-18T12:31:00.913Z,22.17
2022-10-18T12:33:28.263Z,19.00
2022-10-18T12:35:45.275Z,17.42
2022-10-18T12:38:02.694Z,14.23
2022-10-18T12:40:21.816Z,9.87
2022-10-18T12:42:31.662Z,9.20
2022-10-18T12:44:38.208Z,10.30
2022-10-18T12:46:52.706Z,8.77
2022-10-18T12:49:04.966Z,9.37
2022-10-18T12:51:23.813Z,7.60
2022-10-18T12:53:32.149Z,8.20
2022-10-18T12:57:52.261Z,7.87
2022-10-18T13:00:04.888Z,7.13
2022-10-18T13:02:21.196Z,7.10
2022-10-18T13:04:32.427Z,7.07
2022-10-18T13:06:59.304Z,6.87
2022-10-18T13:09:20.412Z,7.10
2022-10-18T13:11:35.827Z,6.83
2022-10-18T13:14:17.685Z,6.80
2022-10-18T13:16:36.517Z,5.80
2022-10-18T13:18:54.799Z,4.93
2022-10-18T13:21:10.418Z,5.33
2022-10-18T13:23:42.892Z,6.20
2022-10-18T13:26:14.319Z,4.50
2022-10-18T13:28:26.560Z,4.97
2022-10-18T13:30:55.859Z,5.30
2022-10-18T13:33:34.925Z,4.70
2022-10-18T13:35:54.960Z,6.07
2022-10-18T13:38:00.356Z,6.40
2022-10-18T13:40:35.254Z,5.50
2022-10-18T13:42:37.817Z,7.00
2022-10-18T13:44:44.682Z,5.50
2022-10-18T13:46:47.334Z,6.60
2022-10-18T13:48:50.644Z,5.90
2022-10-18T13:51:36.103Z,5.70
2022-10-18T13:54:03.899Z,5.50
2022-10-18T13:56:30.236Z,4.63
2022-10-18T13:59:13.131Z,4.73
2022-10-18T14:01:27.285Z,6.30
2022-10-18T14:03:57.507Z,7.93
2022-10-18T14:06:08.018Z,7.40
2022-10-18T14:08:21.315Z,7.40
2022-10-18T14:11:01.247Z,20.13
2022-10-18T14:13:18.667Z,25.23
2022-10-18T14:15:34.768Z,40.00
2022-10-18T14:17:45.195Z,38.38
2022-10-18T14:19:58.085Z,31.87
2022-10-18T14:22:18.899Z,31.00
2022-10-18T14:24:27.784Z,23.50
2022-10-18T14:26:31.746Z,18.13
2022-10-18T14:28:55.316Z,15.27
2022-10-18T14:31:07.365Z,12.97
2022-10-18T14:33:50.864Z,10.57
2022-10-18T14:36:15.499Z,8.70
2022-10-18T14:38:23.020Z,6.60
2022-10-18T14:40:40.278Z,8.70
2022-10-18T14:42:48.874Z,7.50
2022-10-18T14:44:54.420Z,8.53
2022-10-18T14:47:12.356Z,7.50
2022-10-18T14:49:17.782Z,9.50
2022-10-18T14:51:21.724Z,8.60
2022-10-18T14:53:25.431Z,8.10
2022-10-18T14:55:29.467Z,7.80
2022-10-18T14:57:36.408Z,8.20
2022-10-18T14:59:55.752Z,7.97
2022-10-18T15:02:13.949Z,7.80
2022-10-18T15:04:16.562Z,5.87
2022-10-18T15:06:20.348Z,7.20
2022-10-18T15:08:25.792Z,7.47
2022-10-18T15:10:32.659Z,7.67
2022-10-18T15:13:04.387Z,9.20
2022-10-18T15:15:03.878Z,7.97
2022-10-18T15:17:29.763Z,11.50
2022-10-18T15:19:42.895Z,11.00
2022-10-18T15:24:35.170Z,9.90
2022-10-18T15:26:44.313Z,8.67
2022-10-18T15:28:54.043Z,10.43
2022-10-18T15:31:01.813Z,10.52
2022-10-18T15:33:10.289Z,10.00
2022-10-18T15:35:28.104Z,9.77
2022-10-18T15:37:43.376Z,11.10
2022-10-18T15:39:45.988Z,12.67
2022-10-18T15:41:58.073Z,12.27
2022-10-18T15:44:29.729Z,13.23
2022-10-18T15:46:32.933Z,11.87
2022-10-18T15:48:40.949Z,12.20
2022-10-18T15:50:56.761Z,11.50
2022-10-18T15:53:22.886Z,9.60
2022-10-18T15:55:30.797Z,10.82
2022-10-18T15:57:33.834Z,9.97
2022-10-18T15:59:58.728Z,10.03
2022-10-18T16:02:02.242Z,9.27
2022-10-18T16:04:12.198Z,11.52
2022-10-18T16:06:18.227Z,10.80
2022-10-18T16:08:32.041Z,10.68
2022-10-18T16:10:34.605Z,8.83
2022-10-18T16:12:37.358Z,8.97
2022-10-18T16:14:39.913Z,8.43
2022-10-18T16:16:42.451Z,6.83
2022-10-18T16:18:45.082Z,6.27
2022-10-18T16:20:48.808Z,6.40
2022-10-18T16:22:52.434Z,5.83
2022-10-18T16:24:55.144Z,5.85
2022-10-18T16:26:57.656Z,6.20
2022-10-18T16:29:01.322Z,5.57
2022-10-18T16:31:04.250Z,4.73
2022-10-18T16:33:07.596Z,5.40
2022-10-18T16:35:13.833Z,6.05
2022-10-18T16:37:16.382Z,5.13
2022-10-18T16:39:21.807Z,6.03
2022-10-18T16:41:24.874Z,6.15
2022-10-18T16:43:27.387Z,5.13
2022-10-18T16:45:30.167Z,5.20
2022-10-18T16:47:32.844Z,4.85
2022-10-18T16:49:38.550Z,4.43
2022-10-18T16:51:41.131Z,4.83
2022-10-18T16:53:44.591Z,4.87
2022-10-18T16:55:47.111Z,4.27
2022-10-18T16:57:51.857Z,4.17
2022-10-18T16:59:54.349Z,3.80
2022-10-18T17:01:57.080Z,4.37
2022-10-18T17:04:00.861Z,4.30
2022-10-18T17:06:03.498Z,3.70
2022-10-18T17:08:06.598Z,3.80
2022-10-18T17:10:16.170Z,4.10
2022-10-18T17:12:31.707Z,4.07
2022-10-18T17:14:36.948Z,4.10
2022-10-18T17:16:39.546Z,3.97
2022-10-18T17:18:42.939Z,3.70
2022-10-18T17:20:46.289Z,3.60
2022-10-18T17:22:49.065Z,4.33
2022-10-18T17:24:51.634Z,3.40
2022-10-18T17:26:54.211Z,3.90
2022-10-18T17:29:04.550Z,2.97
2022-10-18T17:31:35.949Z,3.23
2022-10-18T17:33:38.642Z,2.93
2022-10-18T17:35:43.273Z,2.77
2022-10-18T17:37:49.888Z,3.35
2022-10-18T17:39:53.028Z,2.47
2022-10-18T17:41:55.704Z,2.90
2022-10-18T17:44:00.889Z,2.77
2022-10-18T17:46:07.140Z,2.50
2022-10-18T17:48:11.682Z,3.03
2022-10-18T17:50:15.722Z,2.50
2022-10-18T17:52:47.023Z,2.43
2022-10-18T17:54:51.243Z,2.50
2022-10-18T17:57:24.209Z,2.53
2022-10-18T17:59:28.921Z,2.63
2022-10-18T18:01:34.399Z,2.53
2022-10-18T18:03:45.733Z,2.73
2022-10-18T18:05:53.027Z,4.50
2022-10-18T18:08:03.860Z,5.10
2022-10-18T18:10:09.962Z,5.20
2022-10-18T18:12:13.404Z,5.20
2022-10-18T18:14:16.424Z,6.53
2022-10-18T18:16:29.654Z,7.53
2022-10-18T18:18:32.204Z,6.87
2022-10-18T18:20:34.763Z,6.67
2022-10-18T18:22:40.384Z,6.53
2022-10-18T18:24:54.963Z,7.10
2022-10-18T18:26:58.104Z,7.03
2022-10-18T18:31:18.833Z,6.20
2022-10-18T18:33:21.446Z,5.80
2022-10-18T18:35:23.959Z,5.10
2022-10-18T18:37:35.029Z,5.37
2022-10-18T18:39:39.345Z,4.60
2022-10-18T18:41:41.877Z,4.90
2022-10-18T18:43:59.993Z,4.70
2022-10-18T18:46:03.170Z,5.30
2022-10-18T18:48:06.101Z,5.13
2022-10-18T18:50:09.014Z,13.00
2022-10-18T18:52:11.608Z,16.90
2022-10-18T18:54:14.932Z,20.60
2022-10-18T18:58:24.188Z,19.50
2022-10-18T19:00:26.829Z,17.30
2022-10-18T19:02:29.742Z,16.93
2022-10-18T19:04:32.605Z,14.67
2022-10-18T19:06:38.961Z,14.13
2022-10-18T19:08:44.842Z,12.10
2022-10-18T19:10:49.332Z,12.63
2022-10-18T19:12:53.873Z,9.83
2022-10-18T19:14:56.427Z,11.10
2022-10-18T19:16:59.930Z,15.60
2022-10-18T19:19:06.752Z,15.70
2022-10-18T19:21:10.043Z,17.07
2022-10-18T19:23:12.594Z,15.70
2022-10-18T19:25:15.381Z,13.03
2022-10-18T19:27:17.930Z,12.27
2022-10-18T19:29:30.456Z,12.27
2022-10-18T19:31:35.007Z,11.57
2022-10-18T19:33:48.166Z,10.67
2022-10-18T19:35:58.498Z,14.43
2022-10-18T19:38:01.069Z,14.77
2022-10-18T19:40:04.476Z,13.80
2022-10-18T19:42:15.677Z,12.67
2022-10-18T19:44:23.021Z,11.07
2022-10-18T19:46:26.431Z,14.13
2022-10-18T19:48:29.394Z,12.00
2022-10-18T19:50:31.947Z,11.73
2022-10-18T19:52:35.011Z,11.57
2022-10-18T19:54:38.472Z,9.53
2022-10-18T19:56:41.871Z,10.33
2022-10-18T19:58:45.987Z,8.90
2022-10-18T20:00:54.039Z,9.07
2022-10-18T20:02:56.697Z,8.53
2022-10-18T20:04:59.236Z,7.20
2022-10-18T20:07:02.949Z,7.23
2022-10-18T20:09:07.560Z,7.27
2022-10-18T20:11:15.257Z,8.83
2022-10-18T20:13:18.226Z,7.47
2022-10-18T20:15:20.807Z,8.13
2022-10-18T20:17:23.306Z,6.30
2022-10-18T20:19:25.904Z,7.33
2022-10-18T20:21:39.496Z,6.47
2022-10-18T20:23:44.254Z,7.75
2022-10-18T20:26:04.436Z,6.67
2022-10-18T20:28:07.025Z,6.10
2022-10-18T20:30:14.756Z,7.10
2022-10-18T20:32:17.408Z,6.70
2022-10-18T20:34:25.146Z,6.10
2022-10-18T20:36:30.201Z,5.33
2022-10-18T20:38:35.201Z,6.90
2022-10-18T20:40:37.754Z,6.00
2022-10-18T20:42:40.441Z,6.27
2022-10-18T20:44:43.661Z,6.20
2022-10-18T20:46:47.092Z,6.17
2022-10-18T20:48:51.527Z,5.47
2022-10-18T20:50:54.290Z,5.85
2022-10-18T20:52:56.849Z,5.90
2022-10-18T20:55:01.509Z,5.27
2022-10-18T20:57:04.088Z,5.87
2022-10-18T20:59:09.913Z,5.00
2022-10-18T21:01:17.111Z,5.13
2022-10-18T21:03:41.622Z,5.87
2022-10-18T21:05:44.142Z,5.63
2022-10-18T21:07:47.233Z,5.30
2022-10-18T21:09:50.009Z,5.57
2022-10-18T21:11:54.610Z,5.77
2022-10-18T21:14:02.727Z,5.07
2022-10-18T21:16:05.918Z,5.50
2022-10-18T21:18:09.051Z,4.93
2022-10-18T21:20:11.838Z,5.43
2022-10-18T21:22:14.403Z,4.67
2022-10-18T21:24:18.982Z,4.90
2022-10-18T21:26:25.949Z,5.13
2022-10-18T21:28:28.633Z,5.17
2022-10-18T21:30:31.162Z,4.57
2022-10-18T21:32:34.234Z,5.30
2022-10-18T21:34:36.949Z,3.90
2022-10-18T21:36:49.222Z,3.97
2022-10-18T21:38:52.232Z,3.60
2022-10-18T21:40:54.734Z,4.07
2022-10-18T21:42:57.626Z,3.63
2022-10-18T21:45:00.190Z,4.27
2022-10-18T21:47:09.541Z,3.37
2022-10-18T21:49:13.727Z,3.40
2022-10-18T21:51:19.074Z,3.50
2022-10-18T21:53:23.092Z,3.47
2022-10-18T21:55:26.256Z,3.90
2022-10-18T21:57:28.812Z,3.67
2022-10-18T21:59:31.435Z,3.93
2022-10-18T22:01:37.852Z,4.10
2022-10-18T22:03:50.307Z,3.70
2022-10-18T22:06:07.452Z,4.37
2022-10-18T22:08:09.988Z,5.07
2022-10-18T22:10:12.552Z,4.27
2022-10-18T22:12:15.318Z,4.10
2022-10-18T22:14:17.949Z,4.40
2022-10-18T22:16:20.904Z,4.83
2022-10-18T22:18:23.459Z,4.80
2022-10-18T22:20:26.458Z,6.00
2022-10-18T22:22:28.943Z,5.20
2022-10-18T22:24:31.606Z,5.90
2022-10-18T22:26:37.985Z,5.20
2022-10-18T22:28:43.250Z,4.93
2022-10-18T22:30:45.881Z,5.47
2022-10-18T22:32:48.463Z,5.23
2022-10-18T22:34:51.095Z,5.40
2022-10-18T22:36:53.770Z,4.60
2022-10-18T22:38:56.586Z,5.03
2022-10-18T22:41:06.729Z,5.50
2022-10-18T22:43:09.401Z,5.43
2022-10-18T22:45:11.954Z,6.40
2022-10-18T22:47:14.477Z,5.43
2022-10-18T22:49:17.447Z,4.70
2022-10-18T22:52:45.107Z,5.30
2022-10-18T22:54:47.705Z,4.67
2022-10-18T22:56:51.794Z,5.10
2022-10-18T22:58:54.360Z,4.43
2022-10-18T23:01:09.006Z,5.07
2022-10-18T23:03:18.764Z,6.07
2022-10-18T23:05:21.311Z,5.67
2022-10-18T23:07:23.941Z,5.90
2022-10-18T23:09:26.497Z,8.40
2022-10-18T23:11:30.144Z,7.80
2022-10-18T23:13:35.030Z,8.00
2022-10-18T23:15:39.997Z,10.00
2022-10-18T23:17:43.557Z,8.63
2022-10-18T23:19:46.550Z,8.00
2022-10-18T23:22:21.407Z,8.80
2022-10-18T23:24:23.950Z,7.70
2022-10-18T23:27:20.272Z,9.50
2022-10-18T23:29:22.982Z,9.82
2022-10-18T23:31:27.750Z,7.50
2022-10-18T23:33:30.289Z,10.87
2022-10-18T23:35:33.183Z,8.20
2022-10-18T23:37:36.091Z,9.20
2022-10-18T23:39:39.010Z,9.50
2022-10-18T23:41:41.542Z,8.83
2022-10-18T23:43:44.458Z,11.63
2022-10-18T23:47:50.434Z,7.80
2022-10-18T23:49:55.580Z,12.97
2022-10-18T23:51:58.126Z,7.87
2022-10-18T23:54:00.765Z,8.87
2022-10-18T23:56:07.949Z,7.90
2022-10-18T23:58:10.486Z,7.87
